Weather History for PAWS - May, 2014

Change the Weather History Date:

Sunday, May 4, 2014

  Actual Average Record
Temperature  
Mean Temperature 52 °F -  
Max Temperature 68 °F 55 °F 73 °F (2004)
Min Temperature 37 °F 33 °F 22 °F (1970)
Degree Days  
Heating Degree Days 12    
Growing Degree Days 2 (Base 50)    
Moisture  
Dew Point 34 °F    
Average Humidity 50    
Maximum Humidity 87    
Minimum Humidity 28    
Precipitation  
Precipitation 0.00 in - - ()
Sea Level Pressure  
Sea Level Pressure 29.89 in    
Wind  
Wind Speed 3 mph (South)    
Max Wind Speed 10 mph    
Max Gust Speed 17 mph    
Visibility 10 miles    
Events      
Averages and records for this station are not official NWS values.
T = Trace of Precipitation, MM = Missing Value Source: NWS Daily Summary

Daily Weather History Graph

Daily Weather History Graph

Search for Another Location

Airport or City:

Trip Planner

Search our weather history database for the weather conditions in past years. The results will help you decide how hot, cold, wet, or windy it might be!

Date:

Astronomy

May. 04, 2014 Rise Set
Actual Time 5:37 AM AKDT 10:13 PM AKDT
Civil Twilight 4:37 AM AKDT 11:15 PM AKDT
Nautical Twilight 2:35 AM AKDT 1:30 AM AKDT
Astronomical Twilight Sun does not set Sun does not set
Moon 10:06 AM AKDT (5/4) 2:31 AM AKDT (5/4)
Length of Visible Light 18h 37m
Length of Day
16h 35m
Waxing Crescent, 29% of the Moon is Illuminated
May 4
Waxing Crescent
May 6
First Quarter
May 14
Full
May 21
Last Quarter
May 28
New

Hourly Weather History & Observations

Time (AKDT) Temp. Windchill Dew Point Humidity Pressure Visibility Wind Dir Wind Speed Gust Speed Precip Events Conditions
12:16 AM 46.4 °F - 33.8 °F 62% 29.97 in 10.0 mi Calm Calm - N/A   Clear
12:36 AM 44.6 °F - 33.8 °F 66% 29.97 in 10.0 mi Calm Calm - N/A   Clear
12:56 AM 44.6 °F - 33.8 °F 66% 29.97 in 10.0 mi Calm Calm - N/A   Clear
1:16 AM 42.8 °F 41.1 °F 33.8 °F 70% 29.97 in 10.0 mi NE 3.5 mph - N/A   Clear
1:36 AM 42.8 °F - 33.8 °F 70% 29.97 in 10.0 mi Calm Calm - N/A   Clear
1:56 AM 42.8 °F - 33.8 °F 70% 29.97 in 10.0 mi Calm Calm - N/A   Clear
2:16 AM 42.8 °F - 33.8 °F 70% 29.97 in 10.0 mi Calm Calm - N/A   Clear
2:36 AM 39.2 °F - 30.2 °F 70% 29.97 in 10.0 mi Calm Calm - N/A   Clear
2:56 AM 39.2 °F - 32.0 °F 75% 29.97 in 10.0 mi Calm Calm - N/A   Clear
3:16 AM 39.2 °F - 33.8 °F 81% 29.97 in 10.0 mi Calm Calm - N/A   Clear
3:36 AM 39.2 °F 37.0 °F 33.8 °F 81% 29.97 in 10.0 mi NNE 3.5 mph - N/A   Clear
3:56 AM 37.4 °F - 33.8 °F 87% 29.97 in 9.0 mi Calm Calm - N/A   Clear
4:16 AM 39.2 °F - 32.0 °F 75% 29.96 in 10.0 mi Calm Calm - N/A   Clear
4:36 AM 37.4 °F - 32.0 °F 81% 29.96 in 10.0 mi Calm Calm - N/A   Clear
4:56 AM 37.4 °F - 32.0 °F 81% 29.95 in 10.0 mi Calm Calm - N/A   Clear
5:16 AM 37.4 °F 34.9 °F 30.2 °F 75% 29.95 in 10.0 mi ESE 3.5 mph - N/A   Clear
5:36 AM 37.4 °F - 33.8 °F 87% 29.95 in 10.0 mi Calm Calm - N/A   Clear
5:56 AM 37.4 °F 34.9 °F 32.0 °F 81% 29.95 in 10.0 mi East 3.5 mph - N/A   Clear
6:16 AM 39.2 °F 37.0 °F 33.8 °F 81% 29.95 in 10.0 mi East 3.5 mph - N/A   Clear
6:36 AM 42.8 °F - 33.8 °F 70% 29.95 in 10.0 mi Calm Calm - N/A   Clear
6:56 AM 42.8 °F 41.1 °F 32.0 °F 66% 29.95 in 10.0 mi ENE 3.5 mph - N/A   Clear
7:16 AM 44.6 °F - 32.0 °F 61% 29.94 in 10.0 mi Calm Calm - N/A   Clear
7:36 AM 44.6 °F - 33.8 °F 66% 29.94 in 10.0 mi Calm Calm - N/A   Clear
7:56 AM 48.2 °F - 33.8 °F 58% 29.94 in 10.0 mi East 3.5 mph - N/A   Clear
8:16 AM 50.0 °F - 33.8 °F 54% 29.93 in 10.0 mi Calm Calm - N/A   Clear
8:36 AM 51.8 °F - 33.8 °F 50% 29.93 in 10.0 mi ESE 3.5 mph - N/A   Clear
8:56 AM 53.6 °F - 33.8 °F 47% 29.93 in 10.0 mi East 3.5 mph - N/A   Clear
9:16 AM 55.4 °F - 33.8 °F 44% 29.92 in 10.0 mi Calm Calm - N/A   Clear
9:36 AM 55.4 °F - 33.8 °F 44% 29.92 in 10.0 mi East 6.9 mph - N/A   Clear
9:56 AM 57.2 °F - 33.8 °F 41% 29.92 in 10.0 mi East 5.8 mph - N/A   Clear
10:16 AM 57.2 °F - 32.0 °F 38% 29.92 in 10.0 mi East 6.9 mph - N/A   Clear
10:36 AM 59.0 °F - 32.0 °F 36% 29.91 in 10.0 mi East 6.9 mph - N/A   Clear
10:56 AM 60.8 °F - 32.0 °F 34% 29.91 in 10.0 mi East 4.6 mph - N/A   Clear
11:16 AM 60.8 °F - 33.8 °F 36% 29.90 in 10.0 mi ENE 4.6 mph - N/A   Clear
11:36 AM 62.6 °F - 33.8 °F 34% 29.90 in 10.0 mi SSW 3.5 mph - N/A   Clear
11:56 AM 62.6 °F - 33.8 °F 34% 29.89 in 10.0 mi SSE 3.5 mph - N/A   Clear
12:16 PM 64.4 °F - 35.6 °F 34% 29.89 in 10.0 mi South 3.5 mph - N/A   Clear
12:36 PM 64.4 °F - 33.8 °F 32% 29.88 in 10.0 mi SSE 5.8 mph - N/A   Clear
12:56 PM 64.4 °F - 35.6 °F 34% 29.88 in 10.0 mi SSE 4.6 mph - N/A   Clear
1:16 PM 64.4 °F - 35.6 °F 34% 29.88 in 10.0 mi South 10.4 mph - N/A   Clear
1:36 PM 66.2 °F - 33.8 °F 30% 29.87 in 10.0 mi WSW 4.6 mph - N/A   Clear
1:56 PM 66.2 °F - 33.8 °F 30% 29.87 in 10.0 mi WSW 6.9 mph - N/A   Clear
2:16 PM 66.2 °F - 33.8 °F 30% 29.86 in 10.0 mi SSW 10.4 mph - N/A   Clear
2:36 PM 66.2 °F - 35.6 °F 32% 29.86 in 10.0 mi WSW 8.1 mph - N/A   Clear
2:56 PM 66.2 °F - 33.8 °F 30% 29.85 in 10.0 mi SW 6.9 mph - N/A   Clear
3:16 PM 66.2 °F - 35.6 °F 32% 29.85 in 10.0 mi SW 8.1 mph - N/A   Clear
3:36 PM 68.0 °F - 33.8 °F 28% 29.84 in 10.0 mi SW 4.6 mph 17.3 mph N/A   Clear
3:56 PM 68.0 °F - 33.8 °F 28% 29.84 in 10.0 mi West 8.1 mph - N/A   Clear
4:16 PM 66.2 °F - 35.6 °F 32% 29.84 in 10.0 mi SW 8.1 mph - N/A   Clear
4:36 PM 66.2 °F - 35.6 °F 32% 29.83 in 10.0 mi West 8.1 mph - N/A   Clear
4:56 PM 68.0 °F - 35.6 °F 30% 29.82 in 10.0 mi South 8.1 mph - N/A   Clear
5:16 PM 66.2 °F - 35.6 °F 32% 29.82 in 10.0 mi South 8.1 mph - N/A   Clear
5:36 PM 66.2 °F - 35.6 °F 32% 29.82 in 10.0 mi SSW 8.1 mph - N/A   Clear
5:56 PM 66.2 °F - 35.6 °F 32% 29.82 in 10.0 mi SSW 6.9 mph - N/A   Clear
6:16 PM 66.2 °F - 35.6 °F 32% 29.81 in 10.0 mi SW 5.8 mph - N/A   Clear
6:36 PM 66.2 °F - 37.4 °F 35% 29.81 in 10.0 mi SW 3.5 mph - N/A   Mostly Cloudy
6:56 PM 66.2 °F - 37.4 °F 35% 29.82 in 10.0 mi West 6.9 mph 16.1 mph N/A   Overcast
7:16 PM 66.2 °F - 37.4 °F 35% 29.82 in 10.0 mi SSW 10.4 mph - N/A   Overcast
7:36 PM 64.4 °F - 37.4 °F 37% 29.82 in 10.0 mi SW 8.1 mph - N/A   Mostly Cloudy
7:56 PM 64.4 °F - 37.4 °F 37% 29.82 in 10.0 mi SSW 6.9 mph - N/A   Mostly Cloudy
8:16 PM 62.6 °F - 37.4 °F 39% 29.82 in 10.0 mi SSW 6.9 mph - N/A   Partly Cloudy
8:36 PM 62.6 °F - 37.4 °F 39% 29.83 in 10.0 mi SSW 6.9 mph - N/A   Clear
8:56 PM 60.8 °F - 37.4 °F 42% 29.83 in 10.0 mi WSW 5.8 mph - N/A   Partly Cloudy
9:16 PM 59.0 °F - 35.6 °F 42% 29.84 in 10.0 mi WSW 4.6 mph - N/A   Scattered Clouds
9:36 PM 59.0 °F - 35.6 °F 42% 29.84 in 10.0 mi WSW 5.8 mph - N/A   Mostly Cloudy
9:56 PM 57.2 °F - 35.6 °F 44% 29.85 in 10.0 mi Calm Calm - N/A   Mostly Cloudy
10:16 PM 57.2 °F - 35.6 °F 44% 29.85 in 10.0 mi West 5.8 mph - N/A   Overcast
10:36 PM 55.4 °F - 35.6 °F 47% 29.85 in 10.0 mi West 4.6 mph - N/A   Mostly Cloudy
10:56 PM 55.4 °F - 35.6 °F 47% 29.85 in 10.0 mi Calm Calm - N/A   Mostly Cloudy
11:16 PM 53.6 °F - 35.6 °F 51% 29.85 in 10.0 mi Calm Calm - N/A   Overcast
11:36 PM 51.8 °F - 35.6 °F 54% 29.86 in 10.0 mi Calm Calm - N/A   Mostly Cloudy
11:56 PM 50.0 °F - 37.4 °F 62% 29.86 in 10.0 mi Calm Calm - N/A   Scattered Clouds